Time;durP1;ratioP1;P1;durP2;ratioP2;P2;SDS_P1;SDS_P2;PMS_P1;PMS_P2;Temp;Humidity;BMP_temperature;BMP_pressure;BME280_temperature;BME280_humidity;BME280_pressure;Samples;Min_cycle;Max_cycle;Signal;HPM_P1;HPM_P2
2021/04/10 00:01:40;;;;;;;;;;;;;;;-0.73;65.02;101285.95;1775493;80;22114;-75
2021/04/10 00:04:11;;;;;;;;;;;;;;;-0.73;65.03;101289.84;1786883;80;21244;-75
2021/04/10 00:06:38;;;;;;;;;;;;;;;-0.75;65.14;101294.22;1738961;81;20514;-75
2021/04/10 00:09:05;;;;;;;;;;;;;;;-0.76;65.25;101286.88;1790814;80;20301;-75
2021/04/10 00:11:35;;;;;;;;;;;;;;;-0.77;65.35;101292.95;1773171;80;20230;-74
2021/04/10 00:14:04;;;;;;;;;;;;;;;-0.79;65.30;101289.95;1771822;80;22059;-73
2021/04/10 00:16:33;;;;;;;;;;;;;;;-0.82;65.29;101292.16;1773445;80;21247;-74
2021/04/10 00:19:00;;;;;;;;;;;;;;;-0.86;65.39;101293.11;1783541;80;20279;-74
2021/04/10 00:21:28;;;;;;;;;;;;;;;-0.89;65.51;101295.73;1781523;80;20546;-74
2021/04/10 00:23:55;;;;;;;;;;;;;;;-0.90;65.61;101294.88;1776064;80;20214;-74
2021/04/10 00:26:22;;;;;;;;;;;;;;;-0.88;65.63;101290.96;1764458;80;22595;-75
2021/04/10 00:28:49;;;;;;;;;;;;;;;-0.91;65.76;101290.58;1775663;80;21257;-74
2021/04/10 00:31:18;;;;;;;;;;;;;;;-0.91;65.82;101289.73;1770519;80;20288;-73
2021/04/10 00:33:46;;;;;;;;;;;;;;;-0.90;65.90;101296.18;1776155;80;20478;-75
2021/04/10 00:36:13;;;;;;;;;;;;;;;-0.88;65.97;101290.52;1734203;81;20220;-75
2021/04/10 00:38:40;;;;;;;;;;;;;;;-0.83;66.01;101295.64;1788319;80;21339;-75
2021/04/10 00:41:11;;;;;;;;;;;;;;;-0.83;65.94;101296.94;1790945;80;20288;-75
2021/04/10 00:43:38;;;;;;;;;;;;;;;-0.85;65.90;101291.37;1774235;80;20223;-76
2021/04/10 00:46:08;;;;;;;;;;;;;;;-0.87;65.94;101292.67;1763009;80;20537;-75
2021/04/10 00:48:37;;;;;;;;;;;;;;;-0.86;65.99;101297.00;1782075;80;20242;-75
2021/04/10 00:51:04;;;;;;;;;;;;;;;-0.86;65.99;101299.59;1750874;80;21900;-75
2021/04/10 00:53:32;;;;;;;;;;;;;;;-0.93;66.05;101292.80;1737148;80;20364;-75
2021/04/10 00:56:03;;;;;;;;;;;;;;;-1.01;66.11;101296.81;1760789;80;20232;-75
2021/04/10 00:58:33;;;;;;;;;;;;;;;-1.07;66.19;101297.34;1775918;80;20452;-75
2021/04/10 01:01:02;;;;;;;;;;;;;;;-1.11;66.27;101292.66;1748237;81;20219;-75
2021/04/10 01:03:29;;;;;;;;;;;;;;;-1.17;66.35;101301.39;1770662;80;22061;-74
2021/04/10 01:05:57;;;;;;;;;;;;;;;-1.18;66.42;101302.71;1773177;80;20270;-74
2021/04/10 01:08:28;;;;;;;;;;;;;;;-1.20;66.47;101300.15;1777089;80;20246;-74
2021/04/10 01:11:11;;;;;;;;;;;;;;;-1.20;66.55;101303.19;1782460;80;20522;-73
2021/04/10 01:13:56;;;;;;;;;;;;;;;-1.22;66.60;101305.80;1773057;80;20215;-74
2021/04/10 01:16:31;;;;;;;;;;;;;;;-1.23;66.70;101310.58;1755020;80;21860;-74
2021/04/10 01:19:09;;;;;;;;;;;;;;;-1.28;66.75;101308.92;1730400;83;20208;-75
2021/04/10 01:21:58;;;;;;;;;;;;;;;-1.33;66.85;101309.02;1725195;81;20276;-75
2021/04/10 01:24:46;;;;;;;;;;;;;;;-1.37;66.97;101313.81;1760120;81;20481;-75
2021/04/10 01:27:30;;;;;;;;;;;;;;;-1.40;66.93;101309.98;1739195;80;20213;-75
2021/04/10 01:30:01;;;;;;;;;;;;;;;-1.45;67.09;101308.77;1771150;80;21844;-76
2021/04/10 01:32:32;;;;;;;;;;;;;;;-1.50;67.19;101303.22;1774454;80;20210;-74
2021/04/10 01:35:13;;;;;;;;;;;;;;;-1.51;67.29;101302.81;1779373;80;20212;-74
2021/04/10 01:37:56;;;;;;;;;;;;;;;-1.55;67.41;101303.27;1787794;80;20473;-74
2021/04/10 01:40:27;;;;;;;;;;;;;;;-1.55;67.42;101302.42;1771939;80;20222;-75
2021/04/10 01:42:55;;;;;;;;;;;;;;;-1.55;67.51;101305.86;1783848;80;42499;-74
2021/04/10 01:45:22;;;;;;;;;;;;;;;-1.52;67.58;101306.28;1783095;80;20235;-74
2021/04/10 01:47:50;;;;;;;;;;;;;;;-1.50;67.66;101303.22;1784950;80;20420;-73
2021/04/10 01:50:19;;;;;;;;;;;;;;;-1.49;67.65;101310.11;1748417;81;20481;-73
2021/04/10 01:52:48;;;;;;;;;;;;;;;-1.49;67.66;101302.34;1737968;82;20240;-74
2021/04/10 01:55:17;;;;;;;;;;;;;;;-1.53;67.72;101301.98;1776974;80;21839;-74
2021/04/10 01:57:48;;;;;;;;;;;;;;;-1.56;67.82;101309.78;1779014;80;20225;-75
2021/04/10 02:00:18;;;;;;;;;;;;;;;-1.61;67.90;101309.86;1740095;80;20308;-74
2021/04/10 02:02:47;;;;;;;;;;;;;;;-1.65;68.06;101304.73;1781526;80;20305;-74
2021/04/10 02:05:16;;;;;;;;;;;;;;;-1.68;68.25;101306.08;1779213;80;20261;-74
2021/04/10 02:07:46;;;;;;;;;;;;;;;-1.69;68.33;101313.44;1755941;80;22128;-73
2021/04/10 02:10:20;;;;;;;;;;;;;;;-1.68;68.36;101321.17;1756002;80;20353;-73
2021/04/10 02:12:59;;;;;;;;;;;;;;;-1.71;68.43;101320.38;1769510;80;20233;-74
2021/04/10 02:15:45;;;;;;;;;;;;;;;-1.74;68.62;101322.55;1781651;80;20234;-74
2021/04/10 02:18:14;;;;;;;;;;;;;;;-1.73;68.77;101324.29;1781248;80;20225;-73
2021/04/10 02:20:41;;;;;;;;;;;;;;;-1.69;68.87;101319.91;1781440;80;22065;-73
2021/04/10 02:23:10;;;;;;;;;;;;;;;-1.66;68.98;101325.03;1749762;80;21243;-73
2021/04/10 02:25:41;;;;;;;;;;;;;;;-1.62;69.02;101319.81;1697868;82;20399;-74
2021/04/10 02:28:10;;;;;;;;;;;;;;;-1.56;69.22;101322.29;1732744;80;20571;-73
2021/04/10 02:30:39;;;;;;;;;;;;;;;-1.46;69.44;101321.28;1762285;81;20210;-74
2021/04/10 02:33:11;;;;;;;;;;;;;;;-1.35;69.47;101321.55;1762765;81;22976;-74
2021/04/10 02:35:45;;;;;;;;;;;;;;;-1.29;69.40;101326.21;1762246;80;20329;-73
2021/04/10 02:38:14;;;;;;;;;;;;;;;-1.25;69.32;101322.71;1781242;80;20500;-75
2021/04/10 02:40:43;;;;;;;;;;;;;;;-1.24;69.20;101327.45;1781708;80;20757;-75
2021/04/10 02:43:12;;;;;;;;;;;;;;;-1.25;69.18;101325.30;1774167;80;20212;-74
2021/04/10 02:45:42;;;;;;;;;;;;;;;-1.28;69.15;101328.36;1774571;80;22099;-74
2021/04/10 02:48:13;;;;;;;;;;;;;;;-1.31;69.17;101331.87;1772597;80;20246;-78
2021/04/10 02:50:41;;;;;;;;;;;;;;;-1.31;69.16;101327.98;1749440;80;20222;-76
2021/04/10 02:53:09;;;;;;;;;;;;;;;-1.29;69.16;101335.28;1756692;80;20881;-76
2021/04/10 02:55:45;;;;;;;;;;;;;;;-1.27;69.16;101327.04;1781370;80;20489;-77
2021/04/10 02:58:34;;;;;;;;;;;;;;;-1.26;69.23;101330.05;1757367;80;20382;-77
2021/04/10 03:01:11;;;;;;;;;;;;;;;-1.25;69.30;101326.59;1781615;80;20365;-77
2021/04/10 03:03:39;;;;;;;;;;;;;;;-1.24;69.36;101323.12;1781699;80;20273;-76
2021/04/10 03:06:07;;;;;;;;;;;;;;;-1.21;69.37;101331.28;1776352;80;20540;-75
2021/04/10 03:08:35;;;;;;;;;;;;;;;-1.19;69.37;101329.52;1736341;81;20233;-76
2021/04/10 03:11:04;;;;;;;;;;;;;;;-1.14;69.37;101332.05;1781231;80;22387;-74
2021/04/10 03:13:33;;;;;;;;;;;;;;;-1.10;69.38;101333.70;1776887;80;21357;-76
2021/04/10 03:16:09;;;;;;;;;;;;;;;-1.07;69.38;101334.50;1774764;80;20254;-74
2021/04/10 03:18:36;;;;;;;;;;;;;;;-1.03;69.36;101339.22;1781870;80;20309;-75
2021/04/10 03:21:06;;;;;;;;;;;;;;;-1.00;69.29;101341.75;1782618;80;20352;-77
2021/04/10 03:23:35;;;;;;;;;;;;;;;-0.99;69.23;101338.27;1776886;80;21871;-74
2021/04/10 03:26:03;;;;;;;;;;;;;;;-0.98;69.23;101333.05;1758559;80;20366;-76
2021/04/10 03:28:32;;;;;;;;;;;;;;;-0.96;69.24;101338.24;1751161;80;20298;-75
2021/04/10 03:31:04;;;;;;;;;;;;;;;-0.95;69.18;101340.80;1754769;80;20922;-75
2021/04/10 03:33:33;;;;;;;;;;;;;;;-0.93;69.18;101338.18;1779549;80;20521;-75
2021/04/10 03:36:02;;;;;;;;;;;;;;;-0.92;69.18;101336.00;1782214;80;22035;-76
2021/04/10 03:38:30;;;;;;;;;;;;;;;-0.92;69.18;101338.59;1781410;80;20342;-73
2021/04/10 03:41:06;;;;;;;;;;;;;;;-0.91;69.16;101342.89;1782012;80;20243;-75
2021/04/10 03:43:35;;;;;;;;;;;;;;;-0.91;69.16;101340.30;1763381;80;20502;-78
2021/04/10 03:46:03;;;;;;;;;;;;;;;-0.90;69.12;101336.83;1782602;80;20231;-76
2021/04/10 03:48:31;;;;;;;;;;;;;;;-0.90;69.19;101342.86;1782493;80;22082;-74
2021/04/10 03:51:04;;;;;;;;;;;;;;;-0.91;69.30;101334.67;1738832;81;20972;-74
2021/04/10 03:53:34;;;;;;;;;;;;;;;-0.90;69.37;101336.83;1749512;80;20872;-75
2021/04/10 03:56:04;;;;;;;;;;;;;;;-0.89;69.35;101341.13;1750335;81;20522;-75
2021/04/10 03:58:33;;;;;;;;;;;;;;;-0.90;69.34;101341.56;1764178;81;20427;-76
2021/04/10 04:01:01;;;;;;;;;;;;;;;-0.88;69.42;101348.02;1758033;80;22065;-74
2021/04/10 04:03:29;;;;;;;;;;;;;;;-0.89;69.31;101346.31;1781877;80;20512;-75
2021/04/10 04:05:57;;;;;;;;;;;;;;;-0.88;69.41;101346.72;1781917;80;20563;-77
2021/04/10 04:08:24;;;;;;;;;;;;;;;-0.85;69.47;101346.69;1736257;81;20493;-78
2021/04/10 04:10:52;;;;;;;;;;;;;;;-0.82;69.53;101346.63;1702929;82;20404;-77
2021/04/10 04:13:19;;;;;;;;;;;;;;;-0.79;69.53;101346.56;1782334;80;22143;-79
2021/04/10 04:15:46;;;;;;;;;;;;;;;-0.75;69.55;101357.33;1782708;79;20355;-76
2021/04/10 04:18:14;;;;;;;;;;;;;;;-0.70;69.50;101354.63;1782547;80;20225;-76
2021/04/10 04:20:41;;;;;;;;;;;;;;;-0.69;69.53;101354.61;1782786;79;20466;-74
2021/04/10 04:23:08;;;;;;;;;;;;;;;-0.66;69.51;101351.98;1782888;79;20245;-74
2021/04/10 04:25:36;;;;;;;;;;;;;;;-0.62;69.54;101361.41;1782791;80;21770;-75
2021/04/10 04:28:03;;;;;;;;;;;;;;;-0.57;69.53;101361.78;1740991;82;20431;-75
2021/04/10 04:30:31;;;;;;;;;;;;;;;-0.53;69.53;101366.02;1763773;81;20249;-75
2021/04/10 04:32:58;;;;;;;;;;;;;;;-0.52;69.65;101368.59;1782935;80;20447;-74
2021/04/10 04:35:26;;;;;;;;;;;;;;;-0.51;69.71;101361.22;1763817;81;20272;-75
2021/04/10 04:37:53;;;;;;;;;;;;;;;-0.47;69.73;101363.33;1781172;80;22873;-74
2021/04/10 04:40:21;;;;;;;;;;;;;;;-0.42;69.77;101361.49;1741943;82;20318;-74
2021/04/10 04:42:48;;;;;;;;;;;;;;;-0.41;69.78;101358.86;1705206;83;20215;-74
2021/04/10 04:45:15;;;;;;;;;;;;;;;-0.35;69.80;101356.16;1764188;81;20919;-76
2021/04/10 04:47:42;;;;;;;;;;;;;;;-0.30;69.83;101357.36;1783735;80;20214;-76
2021/04/10 04:50:11;;;;;;;;;;;;;;;-0.25;69.82;101359.89;1782496;80;22053;-73
2021/04/10 04:52:38;;;;;;;;;;;;;;;-0.22;69.81;101356.77;1774877;80;20346;-75
2021/04/10 04:55:07;;;;;;;;;;;;;;;-0.17;69.78;101358.86;1787664;79;20223;-75
2021/04/10 04:57:34;;;;;;;;;;;;;;;-0.13;69.73;101363.09;1759663;81;21354;-75
2021/04/10 05:00:01;;;;;;;;;;;;;;;-0.08;69.63;101365.17;1759829;80;20226;-74
2021/04/10 05:02:29;;;;;;;;;;;;;;;-0.03;69.54;101369.81;1779960;79;22944;-75
2021/04/10 05:04:57;;;;;;;;;;;;;;;0.03;69.48;101371.89;1760458;81;21632;-75
2021/04/10 05:07:24;;;;;;;;;;;;;;;0.08;69.52;101374.79;1765759;80;20241;-77
2021/04/10 05:09:51;;;;;;;;;;;;;;;0.15;69.52;101371.64;1751107;81;21404;-77
2021/04/10 05:12:18;;;;;;;;;;;;;;;0.21;69.49;101372.82;1790671;80;20247;-74
2021/04/10 05:14:45;;;;;;;;;;;;;;;0.29;69.46;101374.82;1787852;80;22067;-74
2021/04/10 05:17:14;;;;;;;;;;;;;;;0.36;69.45;101371.18;1774666;80;20426;-74
2021/04/10 05:19:42;;;;;;;;;;;;;;;0.45;69.46;101371.42;1772109;80;20210;-74
2021/04/10 05:22:10;;;;;;;;;;;;;;;0.55;69.43;101375.09;1769381;80;20471;-74
2021/04/10 05:24:37;;;;;;;;;;;;;;;0.67;69.33;101367.45;1772951;80;20276;-74
2021/04/10 05:27:05;;;;;;;;;;;;;;;0.79;69.31;101367.20;1784696;80;22076;-72
2021/04/10 05:29:34;;;;;;;;;;;;;;;0.94;69.33;101369.86;1768904;80;21287;-73
2021/04/10 05:32:04;;;;;;;;;;;;;;;1.04;69.25;101367.90;1767359;80;20215;-83
2021/04/10 05:34:31;;;;;;;;;;;;;;;1.17;69.13;101363.27;1795944;80;20306;-85
2021/04/10 05:36:59;;;;;;;;;;;;;;;1.31;69.13;101366.37;1780097;80;20263;-80
2021/04/10 05:39:26;;;;;;;;;;;;;;;1.46;69.05;101360.78;1772026;80;22086;-75
2021/04/10 05:41:54;;;;;;;;;;;;;;;1.63;69.02;101359.86;1781609;80;20439;-75
2021/04/10 05:44:21;;;;;;;;;;;;;;;1.81;68.76;101362.87;1788488;80;20234;-75
2021/04/10 05:46:48;;;;;;;;;;;;;;;1.95;68.53;101365.52;1776137;80;20467;-74
2021/04/10 05:49:17;;;;;;;;;;;;;;;2.09;68.32;101363.81;1790919;78;20564;-74
2021/04/10 05:51:44;;;;;;;;;;;;;;;2.23;68.11;101360.83;1782700;80;21842;-75
2021/04/10 05:54:11;;;;;;;;;;;;;;;2.37;67.85;101366.47;1780555;80;20269;-75
2021/04/10 05:56:39;;;;;;;;;;;;;;;2.51;67.51;101368.66;1759627;80;20213;-73
2021/04/10 05:59:07;;;;;;;;;;;;;;;2.66;67.18;101366.90;1770897;79;21194;-75
2021/04/10 06:01:35;;;;;;;;;;;;;;;2.82;66.85;101369.89;1780701;80;20207;-75
2021/04/10 06:04:02;;;;;;;;;;;;;;;3.00;66.24;101371.07;1779932;80;21220;-74
2021/04/10 06:06:30;;;;;;;;;;;;;;;3.15;65.83;101365.33;1781068;80;20222;-75
2021/04/10 06:08:58;;;;;;;;;;;;;;;3.29;65.56;101364.44;1779112;80;20527;-74
2021/04/10 06:11:28;;;;;;;;;;;;;;;3.44;65.49;101368.28;1773961;80;20438;-75
2021/04/10 06:13:57;;;;;;;;;;;;;;;3.58;65.24;101368.67;1780360;80;20278;-74
2021/04/10 06:16:25;;;;;;;;;;;;;;;3.73;64.71;101366.81;1774874;80;21887;-76
2021/04/10 06:18:54;;;;;;;;;;;;;;;3.90;64.11;101367.53;1779259;80;20211;-76
2021/04/10 06:21:21;;;;;;;;;;;;;;;4.07;63.63;101372.61;1781343;80;20222;-74
2021/04/10 06:23:49;;;;;;;;;;;;;;;4.21;63.37;101369.88;1781207;80;21744;-73
2021/04/10 06:26:16;;;;;;;;;;;;;;;4.37;62.92;101371.93;1782229;80;20207;-75
2021/04/10 06:28:47;;;;;;;;;;;;;;;4.53;62.49;101368.65;1781646;80;21907;-75
2021/04/10 06:31:15;;;;;;;;;;;;;;;4.71;61.90;101363.63;1778713;80;20272;-75
2021/04/10 06:33:43;;;;;;;;;;;;;;;4.89;60.54;101375.98;1754439;80;20222;-74
2021/04/10 06:36:12;;;;;;;;;;;;;;;5.04;59.99;101371.45;1768973;80;20509;-75
2021/04/10 06:38:40;;;;;;;;;;;;;;;5.18;59.32;101364.33;1778544;80;20211;-75
2021/04/10 06:41:14;;;;;;;;;;;;;;;5.32;58.48;101369.86;1770803;79;22071;-76
2021/04/10 06:43:44;;;;;;;;;;;;;;;5.49;58.13;101363.05;1781304;79;20235;-76
2021/04/10 06:46:12;;;;;;;;;;;;;;;5.64;56.45;101362.40;1774988;80;20259;-77
2021/04/10 06:48:40;;;;;;;;;;;;;;;5.76;56.10;101363.17;1782010;80;20273;-76
2021/04/10 06:51:08;;;;;;;;;;;;;;;5.88;56.01;101364.40;1781758;79;20533;-76
2021/04/10 06:53:44;;;;;;;;;;;;;;;6.01;54.98;101362.52;1788233;80;22512;-78
2021/04/10 06:56:13;;;;;;;;;;;;;;;6.19;54.02;101364.78;1775798;80;20403;-76
2021/04/10 06:58:53;;;;;;;;;;;;;;;6.34;53.66;101360.59;1782118;80;20213;-72
2021/04/10 07:01:20;;;;;;;;;;;;;;;6.50;53.38;101366.00;1781519;80;20462;-74
2021/04/10 07:03:50;;;;;;;;;;;;;;;6.63;52.59;101370.20;1791763;80;20242;-74
2021/04/10 07:06:18;;;;;;;;;;;;;;;6.73;51.61;101368.38;1768341;80;22948;-73
2021/04/10 07:08:46;;;;;;;;;;;;;;;6.85;51.22;101374.38;1767014;80;21808;-76
2021/04/10 07:11:14;;;;;;;;;;;;;;;6.95;49.52;101373.47;1782526;80;20222;-78
2021/04/10 07:13:43;;;;;;;;;;;;;;;7.03;49.39;101377.02;1804615;79;20234;-74
2021/04/10 07:16:12;;;;;;;;;;;;;;;7.10;48.75;101378.43;1795347;79;20223;-71
2021/04/10 07:18:40;;;;;;;;;;;;;;;7.14;48.93;101371.66;1768327;81;22143;-75
2021/04/10 07:21:19;;;;;;;;;;;;;;;7.21;49.10;101368.23;1778285;80;20481;-72
2021/04/10 07:23:52;;;;;;;;;;;;;;;7.32;49.28;101367.23;1782790;80;20270;-73
2021/04/10 07:26:20;;;;;;;;;;;;;;;7.50;48.04;101368.55;1776890;80;20506;-73
2021/04/10 07:28:50;;;;;;;;;;;;;;;7.63;46.51;101359.98;1783507;80;20217;-72
2021/04/10 07:31:18;;;;;;;;;;;;;;;7.77;45.79;101365.83;1801048;79;22058;-74
2021/04/10 07:33:59;;;;;;;;;;;;;;;7.83;46.21;101365.52;1768263;79;20382;-76
2021/04/10 07:36:27;;;;;;;;;;;;;;;7.95;45.70;101363.55;1787985;79;20491;-76
2021/04/10 07:39:00;;;;;;;;;;;;;;;8.11;45.02;101369.34;1808490;79;20302;-81
2021/04/10 07:41:27;;;;;;;;;;;;;;;8.19;45.21;101365.33;1801195;79;20224;-78
2021/04/10 07:43:56;;;;;;;;;;;;;;;8.28;44.65;101361.36;1771995;80;21844;-86
2021/04/10 07:46:27;;;;;;;;;;;;;;;8.33;43.70;101365.45;1738489;80;21126;-82
2021/04/10 07:49:11;;;;;;;;;;;;;;;8.41;43.92;101363.77;1767488;81;20686;-82
2021/04/10 07:52:01;;;;;;;;;;;;;;;8.54;43.60;101358.20;1808605;78;20521;-76
2021/04/10 07:54:36;;;;;;;;;;;;;;;8.66;43.79;101358.45;1801031;79;20216;-74
2021/04/10 07:57:08;;;;;;;;;;;;;;;8.78;42.98;101352.05;1805225;79;21935;-84
2021/04/10 07:59:56;;;;;;;;;;;;;;;8.90;41.59;101357.08;1753204;80;20331;-80
2021/04/10 08:02:30;;;;;;;;;;;;;;;8.89;40.75;101359.34;1783624;80;20256;-82
2021/04/10 08:05:06;;;;;;;;;;;;;;;8.85;40.78;101352.06;1749018;80;20287;-80
2021/04/10 08:07:35;;;;;;;;;;;;;;;8.89;41.07;101354.92;1781027;80;20211;-83
2021/04/10 08:10:06;;;;;;;;;;;;;;;9.01;41.01;101357.78;1773908;80;22063;-76
2021/04/10 08:12:40;;;;;;;;;;;;;;;9.07;39.99;101355.66;1777170;80;21255;-78
2021/04/10 08:15:10;;;;;;;;;;;;;;;9.15;38.63;101348.60;1778185;80;20404;-75
2021/04/10 08:17:42;;;;;;;;;;;;;;;9.23;39.87;101348.16;1787561;80;20216;-77
2021/04/10 08:20:27;;;;;;;;;;;;;;;9.27;38.93;101340.00;1783838;80;20181;-75
2021/04/10 08:23:15;;;;;;;;;;;;;;;9.32;39.74;101338.41;1761649;80;22703;-76
2021/04/10 08:25:48;;;;;;;;;;;;;;;9.43;38.04;101343.89;1789705;79;20217;-75
2021/04/10 08:28:18;;;;;;;;;;;;;;;9.48;38.78;101336.56;1807673;79;20272;-75
2021/04/10 08:30:51;;;;;;;;;;;;;;;9.58;39.06;101331.12;1794995;79;21888;-74
2021/04/10 08:33:20;;;;;;;;;;;;;;;9.70;38.81;101331.69;1775291;80;20229;-76
2021/04/10 08:35:50;;;;;;;;;;;;;;;9.83;39.05;101325.66;1798818;79;22968;-76
2021/04/10 08:38:19;;;;;;;;;;;;;;;9.86;37.64;101314.47;1770083;80;21009;-76
2021/04/10 08:40:47;;;;;;;;;;;;;;;9.83;37.84;101319.91;1770789;80;20309;-75
2021/04/10 08:43:15;;;;;;;;;;;;;;;9.77;37.89;101318.98;1775272;80;20525;-74
2021/04/10 08:45:42;;;;;;;;;;;;;;;9.67;38.65;101315.21;1740906;80;20210;-74
2021/04/10 08:48:11;;;;;;;;;;;;;;;9.62;38.43;101314.16;1774247;80;21896;-75
2021/04/10 08:50:38;;;;;;;;;;;;;;;9.63;38.61;101305.77;1796075;79;21870;-72
2021/04/10 08:53:09;;;;;;;;;;;;;;;9.72;39.96;101308.70;1794112;79;20255;-79
2021/04/10 08:55:40;;;;;;;;;;;;;;;9.92;39.72;101308.80;1765329;81;21366;-78
2021/04/10 08:58:24;;;;;;;;;;;;;;;10.14;38.92;101311.44;1796263;79;20260;-79
2021/04/10 09:00:58;;;;;;;;;;;;;;;10.35;37.88;101305.31;1793909;79;22056;-78
2021/04/10 09:03:46;;;;;;;;;;;;;;;10.41;38.72;101312.34;1766251;81;20359;-77
2021/04/10 09:06:24;;;;;;;;;;;;;;;10.55;39.70;101309.69;1772600;80;20303;-77
2021/04/10 09:08:53;;;;;;;;;;;;;;;10.75;40.92;101310.19;1785005;79;20467;-79
2021/04/10 09:11:21;;;;;;;;;;;;;;;10.91;39.67;101300.31;1761104;81;20280;-77
2021/04/10 09:13:50;;;;;;;;;;;;;;;11.05;40.95;101298.06;1789734;79;22635;-77
2021/04/10 09:16:39;;;;;;;;;;;;;;;11.22;40.76;101300.91;1772741;80;20284;-77
2021/04/10 09:19:14;;;;;;;;;;;;;;;11.38;40.14;101285.67;1777587;80;21155;-80
2021/04/10 09:21:55;;;;;;;;;;;;;;;11.53;39.15;101281.15;1776642;80;20289;-78
2021/04/10 09:24:44;;;;;;;;;;;;;;;11.58;40.05;101290.48;1769014;80;20261;-77
2021/04/10 09:27:22;;;;;;;;;;;;;;;11.71;39.70;101285.17;1776034;80;21898;-77
2021/04/10 09:29:57;;;;;;;;;;;;;;;11.85;39.44;101279.77;1768664;80;20338;-78
2021/04/10 09:32:44;;;;;;;;;;;;;;;11.97;38.99;101282.06;1772211;80;20494;-82
2021/04/10 09:35:14;;;;;;;;;;;;;;;12.09;38.99;101274.56;1773629;80;20542;-73
2021/04/10 09:37:50;;;;;;;;;;;;;;;12.23;38.99;101273.55;1775682;80;20277;-80
2021/04/10 09:40:39;;;;;;;;;;;;;;;12.35;39.55;101280.61;1778610;80;20356;-78
2021/04/10 09:43:07;;;;;;;;;;;;;;;12.53;38.55;101277.95;1773043;80;20443;-76
2021/04/10 09:45:37;;;;;;;;;;;;;;;12.50;38.10;101277.34;1786067;80;20300;-76
2021/04/10 09:48:11;;;;;;;;;;;;;;;12.51;37.16;101271.92;1770250;80;21157;-75
2021/04/10 09:50:43;;;;;;;;;;;;;;;12.51;37.96;101270.59;1769093;80;20279;-78
2021/04/10 09:53:16;;;;;;;;;;;;;;;12.63;38.39;101263.55;1773347;80;22075;-76
2021/04/10 09:55:49;;;;;;;;;;;;;;;12.70;37.56;101267.44;1786366;80;20281;-76
2021/04/10 09:58:19;;;;;;;;;;;;;;;12.64;36.10;101261.73;1763983;80;20572;-79
2021/04/10 10:00:52;;;;;;;;;;;;;;;12.44;36.58;101257.91;1805778;79;20464;-75
2021/04/10 10:03:23;;;;;;;;;;;;;;;12.30;36.55;101266.87;1807912;79;20268;-78
2021/04/10 10:05:53;;;;;;;;;;;;;;;12.18;35.64;101263.79;1800961;79;23257;-82
2021/04/10 10:08:23;;;;;;;;;;;;;;;11.88;36.06;101262.85;1806228;79;20264;-80
2021/04/10 10:10:52;;;;;;;;;;;;;;;11.70;36.90;101254.37;1807482;79;20284;-80
2021/04/10 10:13:22;;;;;;;;;;;;;;;11.69;36.27;101255.33;1799541;79;20457;-82
2021/04/10 10:15:53;;;;;;;;;;;;;;;11.70;36.37;101253.89;1771954;81;20233;-78
2021/04/10 10:18:25;;;;;;;;;;;;;;;11.83;36.98;101257.87;1776275;80;21843;-77
2021/04/10 10:20:58;;;;;;;;;;;;;;;12.08;36.49;101254.81;1787137;80;20331;-75
2021/04/10 10:23:40;;;;;;;;;;;;;;;12.18;34.77;101255.36;1771309;80;20254;-75
2021/04/10 10:26:23;;;;;;;;;;;;;;;12.08;34.96;101254.34;1773574;80;20311;-75
2021/04/10 10:28:54;;;;;;;;;;;;;;;11.86;34.20;101251.02;1776636;80;20369;-75
2021/04/10 10:31:23;;;;;;;;;;;;;;;11.75;35.54;101246.94;1790634;80;22094;-81
2021/04/10 10:33:50;;;;;;;;;;;;;;;11.96;34.92;101240.63;1781365;80;20515;-76
2021/04/10 10:36:19;;;;;;;;;;;;;;;11.97;33.70;101244.52;1762876;79;20285;-76
2021/04/10 10:38:48;;;;;;;;;;;;;;;11.89;34.51;101242.88;1754029;81;20552;-76
2021/04/10 10:41:16;;;;;;;;;;;;;;;11.88;34.91;101246.97;1793004;80;20472;-77
2021/04/10 10:43:44;;;;;;;;;;;;;;;12.00;35.07;101237.66;1770384;80;22130;-78
2021/04/10 10:46:19;;;;;;;;;;;;;;;12.21;34.76;101233.94;1764822;80;20520;-76
2021/04/10 10:48:47;;;;;;;;;;;;;;;12.40;33.57;101220.69;1786722;80;20289;-76
2021/04/10 10:51:17;;;;;;;;;;;;;;;12.57;33.90;101218.97;1776688;79;21743;-76
2021/04/10 10:53:51;;;;;;;;;;;;;;;12.81;33.23;101217.59;1780218;80;20293;-75
2021/04/10 10:56:21;;;;;;;;;;;;;;;13.06;33.48;101224.55;1753031;80;22836;-81
2021/04/10 10:58:49;;;;;;;;;;;;;;;13.18;31.72;101227.09;1777191;80;20816;-77
2021/04/10 11:01:37;;;;;;;;;;;;;;;13.06;31.67;101224.55;1805854;79;20689;-77
2021/04/10 11:04:10;;;;;;;;;;;;;;;13.03;32.22;101224.31;1786957;79;20455;-78
2021/04/10 11:06:44;;;;;;;;;;;;;;;13.16;31.27;101225.53;1776111;79;20244;-81
2021/04/10 11:09:21;;;;;;;;;;;;;;;13.24;32.62;101220.52;1766017;81;22066;-78
2021/04/10 11:12:00;;;;;;;;;;;;;;;13.50;32.08;101222.45;1758483;79;20262;-80
2021/04/10 11:14:32;;;;;;;;;;;;;;;13.69;30.98;101207.26;1784770;80;20558;-78
2021/04/10 11:17:00;;;;;;;;;;;;;;;13.77;30.95;101210.64;1785015;80;20953;-79
2021/04/10 11:19:39;;;;;;;;;;;;;;;13.94;31.52;101207.00;1766334;80;20341;-78
2021/04/10 11:22:08;;;;;;;;;;;;;;;14.21;31.29;101203.94;1752548;80;22026;-80
2021/04/10 11:24:42;;;;;;;;;;;;;;;14.43;30.32;101199.51;1785118;79;20369;-78
2021/04/10 11:27:16;;;;;;;;;;;;;;;14.62;30.61;101194.88;1751189;81;20219;-78
2021/04/10 11:30:03;;;;;;;;;;;;;;;14.80;29.97;101188.02;1784615;80;20466;-78
2021/04/10 11:32:37;;;;;;;;;;;;;;;14.99;29.03;101188.64;1782722;80;20216;-76
2021/04/10 11:35:19;;;;;;;;;;;;;;;15.14;29.59;101188.64;1784600;80;22130;-76
2021/04/10 11:37:59;;;;;;;;;;;;;;;15.34;29.03;101190.42;1745363;80;20357;-76
2021/04/10 11:40:31;;;;;;;;;;;;;;;15.54;28.53;101184.73;1796556;79;20411;-76
2021/04/10 11:43:04;;;;;;;;;;;;;;;15.70;28.32;101182.42;1785183;79;20466;-77
2021/04/10 11:45:42;;;;;;;;;;;;;;;15.87;28.19;101181.43;1771918;80;20289;-76
2021/04/10 11:48:19;;;;;;;;;;;;;;;16.00;27.52;101173.52;1767614;80;20443;-78
2021/04/10 11:50:52;;;;;;;;;;;;;;;16.07;27.93;101159.66;1728311;80;20463;-78
2021/04/10 11:53:27;;;;;;;;;;;;;;;16.17;26.85;101157.36;1802779;79;20224;-75
2021/04/10 11:55:56;;;;;;;;;;;;;;;16.14;26.98;101159.47;1805652;79;20463;-74
2021/04/10 11:58:34;;;;;;;;;;;;;;;16.11;27.38;101153.90;1807804;79;20212;-74
2021/04/10 12:01:08;;;;;;;;;;;;;;;15.98;26.21;101156.84;1803346;79;22493;-73
2021/04/10 12:03:55;;;;;;;;;;;;;;;15.79;27.21;101157.28;1793189;79;20228;-74
2021/04/10 12:06:37;;;;;;;;;;;;;;;15.76;27.04;101154.91;1798449;79;20217;-74
2021/04/10 12:09:13;;;;;;;;;;;;;;;15.92;27.59;101150.75;1764579;81;20514;-74
2021/04/10 12:11:42;;;;;;;;;;;;;;;16.22;27.50;101135.14;1759448;79;20248;-74
2021/04/10 12:14:12;;;;;;;;;;;;;;;16.45;27.66;101134.84;1808328;79;22054;-75
2021/04/10 12:16:41;;;;;;;;;;;;;;;16.62;27.34;101138.14;1806467;79;21270;-74
2021/04/10 12:19:11;;;;;;;;;;;;;;;16.65;25.71;101139.17;1774912;80;20258;-75
2021/04/10 12:21:39;;;;;;;;;;;;;;;16.25;25.31;101139.34;1799020;79;20315;-76
2021/04/10 12:24:08;;;;;;;;;;;;;;;15.68;26.38;101147.59;1778646;80;20279;-77
2021/04/10 12:26:39;;;;;;;;;;;;;;;15.17;26.43;101144.00;1778884;80;23230;-75
2021/04/10 12:29:06;;;;;;;;;;;;;;;14.81;27.51;101140.50;1778669;80;21150;-76
2021/04/10 12:31:35;;;;;;;;;;;;;;;14.88;29.19;101139.86;1766946;80;20286;-77
2021/04/10 12:34:04;;;;;;;;;;;;;;;15.32;28.93;101139.15;1774414;80;20306;-75
2021/04/10 12:36:31;;;;;;;;;;;;;;;15.69;27.54;101136.80;1776236;80;20277;-75
2021/04/10 12:38:59;;;;;;;;;;;;;;;15.69;26.97;101131.95;1775505;80;21891;-75
2021/04/10 12:41:28;;;;;;;;;;;;;;;15.50;27.99;101123.88;1809406;79;20291;-76
2021/04/10 12:43:55;;;;;;;;;;;;;;;15.78;28.82;101129.81;1762999;79;20875;-78
2021/04/10 12:46:22;;;;;;;;;;;;;;;16.07;27.33;101117.86;1802259;79;20402;-75
2021/04/10 12:48:50;;;;;;;;;;;;;;;16.15;28.17;101117.17;1764231;80;20285;-75
2021/04/10 12:51:17;;;;;;;;;;;;;;;16.46;27.58;101114.70;1804536;79;22026;-79
2021/04/10 12:53:45;;;;;;;;;;;;;;;16.60;27.59;101105.44;1788014;77;21349;-76
2021/04/10 12:56:12;;;;;;;;;;;;;;;16.86;27.62;101111.01;1754257;81;20276;-75
2021/04/10 12:58:39;;;;;;;;;;;;;;;16.95;25.62;101108.81;1749737;80;20304;-75
2021/04/10 13:01:07;;;;;;;;;;;;;;;16.75;26.89;101095.17;1757875;81;20257;-77